sensor_id;sensor_type;location;lat;lon;timestamp;pressure;altitude;pressure_sealevel;temperature;humidity
43741;BME280;29352;48.708;9.290;2023-08-12T00:00:10;98137.88;;;12.47;81.63
43741;BME280;29352;48.708;9.290;2023-08-12T00:02:38;98135.81;;;12.67;81.20
43741;BME280;29352;48.708;9.290;2023-08-12T00:05:05;98131.03;;;12.51;81.87
43741;BME280;29352;48.708;9.290;2023-08-12T00:07:32;98134.94;;;12.55;81.97
43741;BME280;29352;48.708;9.290;2023-08-12T00:10:02;98135.59;;;12.50;81.74
43741;BME280;29352;48.708;9.290;2023-08-12T00:12:33;98128.69;;;12.43;80.36
43741;BME280;29352;48.708;9.290;2023-08-12T00:15:00;98127.94;;;12.36;81.50
43741;BME280;29352;48.708;9.290;2023-08-12T00:17:26;98128.91;;;12.41;81.67
43741;BME280;29352;48.708;9.290;2023-08-12T00:19:52;98113.81;;;12.47;81.10
43741;BME280;29352;48.708;9.290;2023-08-12T00:22:17;98110.38;;;12.58;80.32
43741;BME280;29352;48.708;9.290;2023-08-12T00:24:43;98109.88;;;12.49;80.65
43741;BME280;29352;48.708;9.290;2023-08-12T00:27:09;98106.94;;;12.69;79.92
43741;BME280;29352;48.708;9.290;2023-08-12T00:29:35;98095.78;;;12.54;80.65
43741;BME280;29352;48.708;9.290;2023-08-12T00:32:01;98093.97;;;12.36;80.39
43741;BME280;29352;48.708;9.290;2023-08-12T00:34:27;98097.94;;;12.64;80.17
43741;BME280;29352;48.708;9.290;2023-08-12T00:36:53;98095.50;;;12.44;80.83
43741;BME280;29352;48.708;9.290;2023-08-12T00:39:18;98096.44;;;12.38;80.46
43741;BME280;29352;48.708;9.290;2023-08-12T00:41:44;98098.50;;;12.17;81.46
43741;BME280;29352;48.708;9.290;2023-08-12T00:44:10;98100.97;;;12.12;82.30
43741;BME280;29352;48.708;9.290;2023-08-12T00:46:38;98100.72;;;11.95;83.16
43741;BME280;29352;48.708;9.290;2023-08-12T00:49:06;98094.16;;;12.53;81.50
43741;BME280;29352;48.708;9.290;2023-08-12T00:51:33;98094.00;;;12.66;81.30
43741;BME280;29352;48.708;9.290;2023-08-12T00:53:59;98082.81;;;12.21;82.20
43741;BME280;29352;48.708;9.290;2023-08-12T00:56:26;98092.53;;;11.72;83.27
43741;BME280;29352;48.708;9.290;2023-08-12T00:58:53;98091.09;;;11.69;83.37
43741;BME280;29352;48.708;9.290;2023-08-12T01:01:20;98087.75;;;11.74;83.91
43741;BME280;29352;48.708;9.290;2023-08-12T01:03:45;98089.78;;;11.78;84.13
43741;BME280;29352;48.708;9.290;2023-08-12T01:06:12;98086.97;;;11.73;83.81
43741;BME280;29352;48.708;9.290;2023-08-12T01:08:38;98084.22;;;11.80;83.20
43741;BME280;29352;48.708;9.290;2023-08-12T01:11:27;98081.66;;;11.67;83.35
43741;BME280;29352;48.708;9.290;2023-08-12T01:16:40;98078.19;;;11.84;83.78
43741;BME280;29352;48.708;9.290;2023-08-12T01:19:13;98076.56;;;11.83;83.87
43741;BME280;29352;48.708;9.290;2023-08-12T01:22:05;98077.63;;;11.57;83.41
43741;BME280;29352;48.708;9.290;2023-08-12T01:24:41;98072.22;;;11.64;83.98
43741;BME280;29352;48.708;9.290;2023-08-12T01:27:10;98075.81;;;11.76;82.77
43741;BME280;29352;48.708;9.290;2023-08-12T01:29:43;98063.22;;;12.02;82.80
43741;BME280;29352;48.708;9.290;2023-08-12T01:35:21;98060.50;;;11.40;84.74
43741;BME280;29352;48.708;9.290;2023-08-12T01:37:53;98061.97;;;11.61;83.68
43741;BME280;29352;48.708;9.290;2023-08-12T01:40:24;98068.13;;;11.36;84.58
43741;BME280;29352;48.708;9.290;2023-08-12T01:42:51;98061.16;;;11.35;83.83
43741;BME280;29352;48.708;9.290;2023-08-12T01:45:18;98067.41;;;11.16;85.25
43741;BME280;29352;48.708;9.290;2023-08-12T01:47:44;98060.06;;;11.11;85.62
43741;BME280;29352;48.708;9.290;2023-08-12T01:50:10;98044.94;;;11.30;85.05
43741;BME280;29352;48.708;9.290;2023-08-12T01:52:36;98055.69;;;11.24;85.93
43741;BME280;29352;48.708;9.290;2023-08-12T01:55:02;98052.25;;;11.17;85.73
43741;BME280;29352;48.708;9.290;2023-08-12T01:57:27;98056.66;;;11.29;85.00
43741;BME280;29352;48.708;9.290;2023-08-12T01:59:53;98054.63;;;11.25;85.40
43741;BME280;29352;48.708;9.290;2023-08-12T02:02:18;98066.94;;;11.26;86.08
43741;BME280;29352;48.708;9.290;2023-08-12T02:04:44;98052.97;;;11.30;85.78
43741;BME280;29352;48.708;9.290;2023-08-12T02:07:10;98055.16;;;11.40;85.08
43741;BME280;29352;48.708;9.290;2023-08-12T02:09:35;98061.16;;;11.35;86.10
43741;BME280;29352;48.708;9.290;2023-08-12T02:12:01;98057.56;;;11.48;84.90
43741;BME280;29352;48.708;9.290;2023-08-12T02:14:26;98057.63;;;11.42;85.67
43741;BME280;29352;48.708;9.290;2023-08-12T02:16:51;98055.94;;;11.16;86.91
43741;BME280;29352;48.708;9.290;2023-08-12T02:19:17;98064.16;;;11.46;85.57
43741;BME280;29352;48.708;9.290;2023-08-12T02:21:42;98055.22;;;11.58;85.01
43741;BME280;29352;48.708;9.290;2023-08-12T02:24:08;98056.44;;;11.38;85.95
43741;BME280;29352;48.708;9.290;2023-08-12T02:26:35;98056.53;;;11.49;86.56
43741;BME280;29352;48.708;9.290;2023-08-12T02:29:00;98057.25;;;11.31;87.09
43741;BME280;29352;48.708;9.290;2023-08-12T02:31:26;98046.03;;;11.73;86.05
43741;BME280;29352;48.708;9.290;2023-08-12T02:33:52;98032.63;;;11.98;83.66
43741;BME280;29352;48.708;9.290;2023-08-12T02:36:17;98036.69;;;11.82;83.99
43741;BME280;29352;48.708;9.290;2023-08-12T02:38:43;98038.56;;;12.00;84.55
43741;BME280;29352;48.708;9.290;2023-08-12T02:41:08;98041.25;;;11.56;85.74
43741;BME280;29352;48.708;9.290;2023-08-12T02:43:34;98037.22;;;11.72;85.74
43741;BME280;29352;48.708;9.290;2023-08-12T02:45:59;98033.03;;;11.76;85.35
43741;BME280;29352;48.708;9.290;2023-08-12T02:48:24;98035.91;;;12.18;85.80
43741;BME280;29352;48.708;9.290;2023-08-12T02:50:50;98028.31;;;12.34;84.08
43741;BME280;29352;48.708;9.290;2023-08-12T02:53:17;98034.53;;;12.09;86.24
43741;BME280;29352;48.708;9.290;2023-08-12T02:55:44;98030.34;;;12.38;85.50
43741;BME280;29352;48.708;9.290;2023-08-12T02:58:10;98029.31;;;12.21;84.81
43741;BME280;29352;48.708;9.290;2023-08-12T03:00:36;98030.88;;;11.85;86.44
43741;BME280;29352;48.708;9.290;2023-08-12T03:03:02;98031.56;;;11.99;87.26
43741;BME280;29352;48.708;9.290;2023-08-12T03:05:30;98027.56;;;12.45;85.41
43741;BME280;29352;48.708;9.290;2023-08-12T03:07:56;98024.81;;;12.51;85.16
43741;BME280;29352;48.708;9.290;2023-08-12T03:10:22;98019.34;;;12.28;85.92
43741;BME280;29352;48.708;9.290;2023-08-12T03:12:48;98029.31;;;12.21;86.21
43741;BME280;29352;48.708;9.290;2023-08-12T03:15:13;98022.53;;;12.18;86.47
43741;BME280;29352;48.708;9.290;2023-08-12T03:17:38;98023.59;;;11.74;88.12
43741;BME280;29352;48.708;9.290;2023-08-12T03:20:06;98012.72;;;11.94;86.93
43741;BME280;29352;48.708;9.290;2023-08-12T03:22:35;98012.41;;;11.83;86.92
43741;BME280;29352;48.708;9.290;2023-08-12T03:25:01;98017.44;;;12.47;86.39
43741;BME280;29352;48.708;9.290;2023-08-12T03:27:26;98019.84;;;12.67;85.31
43741;BME280;29352;48.708;9.290;2023-08-12T03:29:52;98017.91;;;13.04;83.13
43741;BME280;29352;48.708;9.290;2023-08-12T03:32:17;98009.19;;;12.78;84.41
43741;BME280;29352;48.708;9.290;2023-08-12T03:34:42;98010.09;;;12.42;86.01
43741;BME280;29352;48.708;9.290;2023-08-12T03:37:08;98011.31;;;12.28;85.75
43741;BME280;29352;48.708;9.290;2023-08-12T03:39:34;98005.88;;;11.79;87.41
43741;BME280;29352;48.708;9.290;2023-08-12T03:41:59;98013.75;;;12.11;85.43
43741;BME280;29352;48.708;9.290;2023-08-12T03:44:24;98015.25;;;12.07;85.29
43741;BME280;29352;48.708;9.290;2023-08-12T03:46:50;98013.75;;;12.11;84.95
43741;BME280;29352;48.708;9.290;2023-08-12T03:49:15;98013.59;;;12.06;85.52
43741;BME280;29352;48.708;9.290;2023-08-12T03:51:41;98010.25;;;11.92;85.90
43741;BME280;29352;48.708;9.290;2023-08-12T03:54:06;98002.53;;;11.84;86.34
43741;BME280;29352;48.708;9.290;2023-08-12T03:56:31;97997.81;;;11.61;88.03
43741;BME280;29352;48.708;9.290;2023-08-12T03:58:57;97998.88;;;11.78;87.44
43741;BME280;29352;48.708;9.290;2023-08-12T04:01:22;98001.56;;;11.97;87.26
43741;BME280;29352;48.708;9.290;2023-08-12T04:03:48;98007.78;;;12.09;86.65
43741;BME280;29352;48.708;9.290;2023-08-12T04:06:13;98009.38;;;12.17;86.19
43741;BME280;29352;48.708;9.290;2023-08-12T04:08:39;98003.38;;;12.21;85.24
43741;BME280;29352;48.708;9.290;2023-08-12T04:11:05;98006.00;;;12.40;85.46
43741;BME280;29352;48.708;9.290;2023-08-12T04:13:30;98001.75;;;12.20;85.33
43741;BME280;29352;48.708;9.290;2023-08-12T04:15:56;98002.69;;;12.26;85.47
43741;BME280;29352;48.708;9.290;2023-08-12T04:18:22;98003.56;;;12.38;84.98
43741;BME280;29352;48.708;9.290;2023-08-12T04:20:52;98007.78;;;12.09;86.55
43741;BME280;29352;48.708;9.290;2023-08-12T04:23:18;98004.47;;;12.32;85.15
43741;BME280;29352;48.708;9.290;2023-08-12T04:25:45;98011.03;;;12.48;84.10
43741;BME280;29352;48.708;9.290;2023-08-12T04:28:12;98012.25;;;12.52;84.16
43741;BME280;29352;48.708;9.290;2023-08-12T04:30:43;98011.69;;;12.31;85.24
43741;BME280;29352;48.708;9.290;2023-08-12T04:33:13;98005.38;;;12.56;84.60
43741;BME280;29352;48.708;9.290;2023-08-12T04:35:40;98011.38;;;13.00;82.79
43741;BME280;29352;48.708;9.290;2023-08-12T04:38:05;98012.47;;;13.22;82.04
43741;BME280;29352;48.708;9.290;2023-08-12T04:40:32;98013.53;;;13.33;81.89
43741;BME280;29352;48.708;9.290;2023-08-12T04:43:00;98004.41;;;13.22;82.12
43741;BME280;29352;48.708;9.290;2023-08-12T04:45:27;98018.13;;;13.02;83.26
43741;BME280;29352;48.708;9.290;2023-08-12T04:47:52;98020.50;;;13.11;83.27
43741;BME280;29352;48.708;9.290;2023-08-12T04:50:19;98019.13;;;12.90;83.91
43741;BME280;29352;48.708;9.290;2023-08-12T04:52:44;98027.16;;;12.60;85.84
43741;BME280;29352;48.708;9.290;2023-08-12T04:55:11;98021.19;;;12.76;85.25
43741;BME280;29352;48.708;9.290;2023-08-12T04:57:37;98018.69;;;12.63;85.57
43741;BME280;29352;48.708;9.290;2023-08-12T05:00:04;98018.16;;;12.54;86.69
43741;BME280;29352;48.708;9.290;2023-08-12T05:02:33;98024.66;;;12.46;86.58
43741;BME280;29352;48.708;9.290;2023-08-12T05:04:58;98015.94;;;12.51;87.45
43741;BME280;29352;48.708;9.290;2023-08-12T05:07:24;98019.28;;;12.95;85.48
43741;BME280;29352;48.708;9.290;2023-08-12T05:09:49;98019.59;;;12.87;85.29
43741;BME280;29352;48.708;9.290;2023-08-12T05:12:14;97997.94;;;13.42;82.91
43741;BME280;29352;48.708;9.290;2023-08-12T05:14:40;98007.59;;;13.43;82.70
43741;BME280;29352;48.708;9.290;2023-08-12T05:17:06;98026.75;;;13.05;84.21
43741;BME280;29352;48.708;9.290;2023-08-12T05:19:32;98035.38;;;13.07;85.14
43741;BME280;29352;48.708;9.290;2023-08-12T05:21:58;98029.97;;;13.48;83.13
43741;BME280;29352;48.708;9.290;2023-08-12T05:24:23;98029.13;;;13.24;84.23
43741;BME280;29352;48.708;9.290;2023-08-12T05:26:49;98034.16;;;13.44;83.34
43741;BME280;29352;48.708;9.290;2023-08-12T05:29:14;98024.72;;;13.42;83.88
43741;BME280;29352;48.708;9.290;2023-08-12T05:31:40;98022.66;;;13.02;84.38
43741;BME280;29352;48.708;9.290;2023-08-12T05:34:05;98024.25;;;12.61;86.72
43741;BME280;29352;48.708;9.290;2023-08-12T05:36:31;98022.53;;;12.00;88.78
43741;BME280;29352;48.708;9.290;2023-08-12T05:38:56;98007.00;;;13.17;84.99
43741;BME280;29352;48.708;9.290;2023-08-12T05:41:22;98006.78;;;13.78;83.03
43741;BME280;29352;48.708;9.290;2023-08-12T05:43:50;98021.81;;;13.43;83.97
43741;BME280;29352;48.708;9.290;2023-08-12T05:46:16;98044.06;;;13.32;83.33
43741;BME280;29352;48.708;9.290;2023-08-12T05:48:42;98040.91;;;13.35;82.65
43741;BME280;29352;48.708;9.290;2023-08-12T05:51:08;98036.31;;;13.12;83.38
43741;BME280;29352;48.708;9.290;2023-08-12T05:53:33;98032.06;;;13.58;82.55
43741;BME280;29352;48.708;9.290;2023-08-12T05:55:59;98026.84;;;13.75;82.46
43741;BME280;29352;48.708;9.290;2023-08-12T05:58:25;98029.88;;;13.90;82.35
43741;BME280;29352;48.708;9.290;2023-08-12T06:00:50;98032.63;;;14.19;80.01
43741;BME280;29352;48.708;9.290;2023-08-12T06:03:16;98023.06;;;13.17;82.79
43741;BME280;29352;48.708;9.290;2023-08-12T06:05:44;98032.72;;;13.18;84.83
43741;BME280;29352;48.708;9.290;2023-08-12T06:08:11;98027.31;;;13.48;83.85
43741;BME280;29352;48.708;9.290;2023-08-12T06:10:37;98028.16;;;14.25;81.65
43741;BME280;29352;48.708;9.290;2023-08-12T06:13:02;98025.78;;;14.52;80.31
43741;BME280;29352;48.708;9.290;2023-08-12T06:15:29;98024.66;;;14.93;77.74
43741;BME280;29352;48.708;9.290;2023-08-12T06:17:55;98019.22;;;14.88;78.71
43741;BME280;29352;48.708;9.290;2023-08-12T06:20:20;98014.03;;;15.32;76.90
43741;BME280;29352;48.708;9.290;2023-08-12T06:22:46;98011.34;;;15.32;76.94
43741;BME280;29352;48.708;9.290;2023-08-12T06:25:11;98013.22;;;15.14;78.09
43741;BME280;29352;48.708;9.290;2023-08-12T06:27:37;98020.22;;;13.78;81.37
43741;BME280;29352;48.708;9.290;2023-08-12T06:30:03;98012.38;;;13.88;82.59
43741;BME280;29352;48.708;9.290;2023-08-12T06:32:28;98005.16;;;14.98;80.04
43741;BME280;29352;48.708;9.290;2023-08-12T06:34:54;98009.91;;;14.79;80.48
43741;BME280;29352;48.708;9.290;2023-08-12T06:37:19;98009.94;;;16.19;75.92
43741;BME280;29352;48.708;9.290;2023-08-12T06:39:45;98009.25;;;16.50;74.07
43741;BME280;29352;48.708;9.290;2023-08-12T06:42:10;97997.72;;;16.82;72.70
43741;BME280;29352;48.708;9.290;2023-08-12T06:44:35;98007.28;;;16.95;72.68
43741;BME280;29352;48.708;9.290;2023-08-12T06:47:01;98005.44;;;17.00;73.18
43741;BME280;29352;48.708;9.290;2023-08-12T06:49:26;98002.41;;;18.04;70.43
43741;BME280;29352;48.708;9.290;2023-08-12T06:51:52;97989.72;;;18.04;68.93
43741;BME280;29352;48.708;9.290;2023-08-12T06:54:17;97992.97;;;17.64;70.02
43741;BME280;29352;48.708;9.290;2023-08-12T06:56:42;97998.22;;;17.06;71.88
43741;BME280;29352;48.708;9.290;2023-08-12T06:59:08;97990.78;;;19.53;66.27
43741;BME280;29352;48.708;9.290;2023-08-12T07:01:34;97989.53;;;21.78;60.97
43741;BME280;29352;48.708;9.290;2023-08-12T07:03:59;97980.28;;;21.79;59.77
43741;BME280;29352;48.708;9.290;2023-08-12T07:06:25;97981.78;;;23.60;56.62
43741;BME280;29352;48.708;9.290;2023-08-12T07:08:50;97971.00;;;24.38;55.04
43741;BME280;29352;48.708;9.290;2023-08-12T07:11:15;97982.13;;;24.14;54.01
43741;BME280;29352;48.708;9.290;2023-08-12T07:13:41;97982.53;;;23.00;56.64
43741;BME280;29352;48.708;9.290;2023-08-12T07:16:08;97984.13;;;23.34;55.77
43741;BME280;29352;48.708;9.290;2023-08-12T07:18:33;97974.97;;;25.89;52.26
43741;BME280;29352;48.708;9.290;2023-08-12T07:20:59;97979.22;;;26.12;51.64
43741;BME280;29352;48.708;9.290;2023-08-12T07:23:25;97984.31;;;24.39;54.39
43741;BME280;29352;48.708;9.290;2023-08-12T07:25:50;97975.88;;;26.24;51.97
43741;BME280;29352;48.708;9.290;2023-08-12T07:28:16;97966.84;;;25.13;52.63
43741;BME280;29352;48.708;9.290;2023-08-12T07:30:41;97970.56;;;26.19;51.69
43741;BME280;29352;48.708;9.290;2023-08-12T07:33:07;97967.38;;;24.78;53.40
43741;BME280;29352;48.708;9.290;2023-08-12T07:35:32;97967.41;;;25.01;52.80
43741;BME280;29352;48.708;9.290;2023-08-12T07:37:58;97956.56;;;28.69;47.72
43741;BME280;29352;48.708;9.290;2023-08-12T07:40:24;97957.47;;;27.55;48.82
43741;BME280;29352;48.708;9.290;2023-08-12T07:42:49;97944.25;;;29.21;47.03
43741;BME280;29352;48.708;9.290;2023-08-12T07:45:15;97955.00;;;28.09;47.56
43741;BME280;29352;48.708;9.290;2023-08-12T07:47:40;97962.69;;;27.95;48.05
43741;BME280;29352;48.708;9.290;2023-08-12T07:50:06;97950.91;;;28.66;47.17
43741;BME280;29352;48.708;9.290;2023-08-12T07:52:32;97950.47;;;29.76;45.15
43741;BME280;29352;48.708;9.290;2023-08-12T07:54:57;97941.06;;;28.86;46.18
43741;BME280;29352;48.708;9.290;2023-08-12T07:57:23;97956.44;;;28.15;46.95
43741;BME280;29352;48.708;9.290;2023-08-12T07:59:50;97954.03;;;27.75;47.98
43741;BME280;29352;48.708;9.290;2023-08-12T08:02:16;97943.91;;;29.56;46.05
43741;BME280;29352;48.708;9.290;2023-08-12T08:04:42;97949.97;;;28.83;46.72
43741;BME280;29352;48.708;9.290;2023-08-12T08:07:08;97952.75;;;29.16;45.33
43741;BME280;29352;48.708;9.290;2023-08-12T08:09:34;97949.31;;;29.77;44.88
43741;BME280;29352;48.708;9.290;2023-08-12T08:12:00;97961.41;;;29.39;45.21
43741;BME280;29352;48.708;9.290;2023-08-12T08:14:26;97945.19;;;29.83;45.07
43741;BME280;29352;48.708;9.290;2023-08-12T08:16:53;97946.78;;;27.71;47.37
43741;BME280;29352;48.708;9.290;2023-08-12T08:19:18;97952.50;;;29.54;44.62
43741;BME280;29352;48.708;9.290;2023-08-12T08:21:44;97958.81;;;27.49;47.51
43741;BME280;29352;48.708;9.290;2023-08-12T08:24:10;97952.03;;;26.07;50.18
43741;BME280;29352;48.708;9.290;2023-08-12T08:26:40;97944.22;;;26.93;48.55
43741;BME280;29352;48.708;9.290;2023-08-12T08:29:06;97948.88;;;27.18;48.23
43741;BME280;29352;48.708;9.290;2023-08-12T08:31:31;97952.69;;;25.11;51.80
43741;BME280;29352;48.708;9.290;2023-08-12T08:33:57;97945.31;;;25.73;50.21
43741;BME280;29352;48.708;9.290;2023-08-12T08:36:23;97955.28;;;26.27;49.80
43741;BME280;29352;48.708;9.290;2023-08-12T08:38:49;97944.75;;;25.94;50.76
43741;BME280;29352;48.708;9.290;2023-08-12T08:41:16;97957.53;;;26.33;50.26
43741;BME280;29352;48.708;9.290;2023-08-12T08:43:43;97950.78;;;25.73;50.51
43741;BME280;29352;48.708;9.290;2023-08-12T08:46:10;97955.88;;;25.35;51.05
43741;BME280;29352;48.708;9.290;2023-08-12T08:48:41;97951.44;;;26.28;50.38
43741;BME280;29352;48.708;9.290;2023-08-12T08:51:09;97958.59;;;26.55;48.87
43741;BME280;29352;48.708;9.290;2023-08-12T08:53:40;97950.19;;;29.11;46.23
43741;BME280;29352;48.708;9.290;2023-08-12T08:56:07;97947.91;;;30.32;44.10
43741;BME280;29352;48.708;9.290;2023-08-12T08:58:37;97943.00;;;30.37;44.20
43741;BME280;29352;48.708;9.290;2023-08-12T09:01:05;97960.81;;;26.53;48.46
43741;BME280;29352;48.708;9.290;2023-08-12T09:03:35;97958.75;;;25.30;50.30
43741;BME280;29352;48.708;9.290;2023-08-12T09:06:02;97956.94;;;26.54;50.17
43741;BME280;29352;48.708;9.290;2023-08-12T09:08:31;97945.16;;;25.70;50.39
43741;BME280;29352;48.708;9.290;2023-08-12T09:10:59;97945.28;;;28.83;45.14
43741;BME280;29352;48.708;9.290;2023-08-12T09:13:27;97955.72;;;27.89;47.21
43741;BME280;29352;48.708;9.290;2023-08-12T09:15:53;97954.81;;;29.64;45.02
43741;BME280;29352;48.708;9.290;2023-08-12T09:18:20;97949.03;;;28.99;46.17
43741;BME280;29352;48.708;9.290;2023-08-12T09:20:52;97948.25;;;29.69;44.14
43741;BME280;29352;48.708;9.290;2023-08-12T09:23:19;97959.94;;;27.86;46.76
43741;BME280;29352;48.708;9.290;2023-08-12T09:25:45;97949.75;;;29.54;45.23
43741;BME280;29352;48.708;9.290;2023-08-12T09:28:11;97946.56;;;29.19;44.74
43741;BME280;29352;48.708;9.290;2023-08-12T09:30:38;97950.91;;;26.08;48.96
43741;BME280;29352;48.708;9.290;2023-08-12T09:33:06;97940.16;;;26.12;49.60
43741;BME280;29352;48.708;9.290;2023-08-12T09:35:35;97944.88;;;25.80;50.17
43741;BME280;29352;48.708;9.290;2023-08-12T09:38:04;97938.28;;;29.52;44.74
43741;BME280;29352;48.708;9.290;2023-08-12T09:40:32;97929.81;;;29.57;43.82
43741;BME280;29352;48.708;9.290;2023-08-12T09:42:59;97934.41;;;30.27;42.18
43741;BME280;29352;48.708;9.290;2023-08-12T09:45:26;97925.59;;;30.21;42.39
43741;BME280;29352;48.708;9.290;2023-08-12T09:47:54;97924.38;;;29.24;43.69
43741;BME280;29352;48.708;9.290;2023-08-12T09:50:24;97929.88;;;27.69;44.63
43741;BME280;29352;48.708;9.290;2023-08-12T09:52:52;97929.88;;;26.96;45.83
43741;BME280;29352;48.708;9.290;2023-08-12T09:55:23;97924.13;;;26.54;46.35
43741;BME280;29352;48.708;9.290;2023-08-12T09:57:54;97919.72;;;26.01;47.60
43741;BME280;29352;48.708;9.290;2023-08-12T10:00:24;97912.22;;;27.40;45.74
43741;BME280;29352;48.708;9.290;2023-08-12T10:02:51;97918.06;;;28.06;45.18
43741;BME280;29352;48.708;9.290;2023-08-12T10:05:34;97908.78;;;27.13;45.30
43741;BME280;29352;48.708;9.290;2023-08-12T10:07:59;97904.13;;;27.14;45.81
43741;BME280;29352;48.708;9.290;2023-08-12T10:10:30;97905.69;;;27.71;45.05
43741;BME280;29352;48.708;9.290;2023-08-12T10:12:58;97886.75;;;28.91;43.87
43741;BME280;29352;48.708;9.290;2023-08-12T10:15:25;97881.94;;;26.46;46.78
43741;BME280;29352;48.708;9.290;2023-08-12T10:17:51;97880.97;;;26.33;46.96
43741;BME280;29352;48.708;9.290;2023-08-12T10:20:23;97886.91;;;26.44;46.42
43741;BME280;29352;48.708;9.290;2023-08-12T10:22:50;97896.25;;;27.04;45.81
43741;BME280;29352;48.708;9.290;2023-08-12T10:25:19;97906.56;;;27.07;46.11
43741;BME280;29352;48.708;9.290;2023-08-12T10:27:48;97902.41;;;27.48;45.87
43741;BME280;29352;48.708;9.290;2023-08-12T10:30:14;97901.94;;;27.46;45.76
43741;BME280;29352;48.708;9.290;2023-08-12T10:32:40;97896.56;;;27.02;46.20
43741;BME280;29352;48.708;9.290;2023-08-12T10:35:07;97901.53;;;27.09;46.49
43741;BME280;29352;48.708;9.290;2023-08-12T10:37:34;97903.81;;;27.07;46.33
43741;BME280;29352;48.708;9.290;2023-08-12T10:40:03;97895.56;;;27.24;46.59
43741;BME280;29352;48.708;9.290;2023-08-12T10:42:47;97894.16;;;27.01;46.73
43741;BME280;29352;48.708;9.290;2023-08-12T10:45:15;97903.94;;;27.66;46.50
43741;BME280;29352;48.708;9.290;2023-08-12T10:50:34;97894.97;;;27.01;46.38
43741;BME280;29352;48.708;9.290;2023-08-12T10:56:02;97919.00;;;27.90;46.50
43741;BME280;29352;48.708;9.290;2023-08-12T10:58:33;97912.63;;;28.48;45.74
43741;BME280;29352;48.708;9.290;2023-08-12T11:01:19;97907.16;;;28.69;45.98
43741;BME280;29352;48.708;9.290;2023-08-12T11:03:46;97903.94;;;28.46;45.25
43741;BME280;29352;48.708;9.290;2023-08-12T11:06:13;97897.00;;;28.49;45.77
43741;BME280;29352;48.708;9.290;2023-08-12T11:08:56;97891.50;;;29.15;44.67
43741;BME280;29352;48.708;9.290;2023-08-12T11:11:23;97892.97;;;29.95;43.34
43741;BME280;29352;48.708;9.290;2023-08-12T11:13:58;97890.94;;;29.22;44.19
43741;BME280;29352;48.708;9.290;2023-08-12T11:16:36;97887.34;;;28.43;45.08
43741;BME280;29352;48.708;9.290;2023-08-12T11:19:03;97877.06;;;29.06;44.36
43741;BME280;29352;48.708;9.290;2023-08-12T11:21:29;97871.88;;;29.87;44.36
43741;BME280;29352;48.708;9.290;2023-08-12T11:23:55;97870.50;;;29.93;43.86
43741;BME280;29352;48.708;9.290;2023-08-12T11:26:23;97873.00;;;30.51;43.25
43741;BME280;29352;48.708;9.290;2023-08-12T11:28:49;97874.84;;;29.33;44.78
43741;BME280;29352;48.708;9.290;2023-08-12T11:31:16;97867.22;;;28.72;45.62
43741;BME280;29352;48.708;9.290;2023-08-12T11:33:43;97863.75;;;28.84;45.20
43741;BME280;29352;48.708;9.290;2023-08-12T11:36:08;97866.44;;;28.29;45.37
43741;BME280;29352;48.708;9.290;2023-08-12T11:38:34;97862.09;;;27.78;46.55
43741;BME280;29352;48.708;9.290;2023-08-12T11:41:02;97855.66;;;27.53;47.27
43741;BME280;29352;48.708;9.290;2023-08-12T11:43:28;97839.69;;;28.47;45.62
43741;BME280;29352;48.708;9.290;2023-08-12T11:45:55;97847.88;;;27.93;45.76
43741;BME280;29352;48.708;9.290;2023-08-12T11:48:21;97836.06;;;28.14;45.85
43741;BME280;29352;48.708;9.290;2023-08-12T11:50:50;97826.72;;;27.26;47.35
43741;BME280;29352;48.708;9.290;2023-08-12T11:53:16;97822.50;;;27.96;46.64
43741;BME280;29352;48.708;9.290;2023-08-12T11:55:42;97824.81;;;28.27;45.82
43741;BME280;29352;48.708;9.290;2023-08-12T11:58:08;97824.84;;;27.18;47.60
43741;BME280;29352;48.708;9.290;2023-08-12T12:00:37;97834.94;;;26.70;48.06
43741;BME280;29352;48.708;9.290;2023-08-12T12:03:03;97846.28;;;27.16;47.54
43741;BME280;29352;48.708;9.290;2023-08-12T12:05:29;97868.78;;;27.98;46.84
43741;BME280;29352;48.708;9.290;2023-08-12T12:08:01;97877.16;;;28.01;45.93
43741;BME280;29352;48.708;9.290;2023-08-12T12:10:32;97875.25;;;27.64;46.40
43741;BME280;29352;48.708;9.290;2023-08-12T12:12:59;97880.66;;;27.34;47.03
43741;BME280;29352;48.708;9.290;2023-08-12T12:15:25;97875.66;;;26.72;47.90
43741;BME280;29352;48.708;9.290;2023-08-12T12:17:51;97877.91;;;26.78;48.11
43741;BME280;29352;48.708;9.290;2023-08-12T12:20:17;97883.22;;;26.31;48.37
43741;BME280;29352;48.708;9.290;2023-08-12T12:22:44;97886.97;;;26.61;47.71
43741;BME280;29352;48.708;9.290;2023-08-12T12:25:13;97888.25;;;25.72;48.94
43741;BME280;29352;48.708;9.290;2023-08-12T12:27:41;97894.09;;;25.48;48.79
43741;BME280;29352;48.708;9.290;2023-08-12T12:30:10;97879.41;;;25.27;49.29
43741;BME280;29352;48.708;9.290;2023-08-12T12:32:37;97896.13;;;25.03;49.26
43741;BME280;29352;48.708;9.290;2023-08-12T12:35:03;97923.72;;;24.42;51.67
43741;BME280;29352;48.708;9.290;2023-08-12T12:37:30;97923.88;;;21.70;65.02
43741;BME280;29352;48.708;9.290;2023-08-12T12:39:55;97941.78;;;21.18;69.97
43741;BME280;29352;48.708;9.290;2023-08-12T12:42:21;97954.84;;;19.42;75.68
43741;BME280;29352;48.708;9.290;2023-08-12T12:44:47;97965.63;;;18.81;78.26
43741;BME280;29352;48.708;9.290;2023-08-12T12:47:12;97985.34;;;18.66;78.69
43741;BME280;29352;48.708;9.290;2023-08-12T12:49:39;98016.00;;;18.29;81.06
43741;BME280;29352;48.708;9.290;2023-08-12T12:52:06;98050.75;;;18.05;83.35
43741;BME280;29352;48.708;9.290;2023-08-12T12:54:32;98069.22;;;17.81;87.20
43741;BME280;29352;48.708;9.290;2023-08-12T12:56:57;98052.91;;;18.08;88.88
43741;BME280;29352;48.708;9.290;2023-08-12T12:59:23;98070.75;;;17.72;86.29
43741;BME280;29352;48.708;9.290;2023-08-12T13:01:49;98071.31;;;17.74;89.16
43741;BME280;29352;48.708;9.290;2023-08-12T13:04:14;98077.91;;;17.56;88.38
43741;BME280;29352;48.708;9.290;2023-08-12T13:06:40;98083.53;;;17.49;86.85
43741;BME280;29352;48.708;9.290;2023-08-12T13:09:05;98085.69;;;17.47;87.24